createdAt,value
2019-05-13T00:01:47.356Z,102479.92
2019-05-13T00:04:14.897Z,102470.17
2019-05-13T00:06:51.414Z,102470.17
2019-05-13T00:09:10.835Z,102475.24
2019-05-13T00:11:38.080Z,102469.70
2019-05-13T00:14:06.032Z,102469.70
2019-05-13T00:16:34.417Z,102474.77
2019-05-13T00:19:03.965Z,102476.80
2019-05-13T00:21:30.705Z,102476.80
2019-05-13T00:23:57.921Z,102482.13
2019-05-13T00:26:24.981Z,102485.10
2019-05-13T00:28:53.439Z,102482.60
2019-05-13T00:31:21.312Z,102481.32
2019-05-13T00:33:48.311Z,102483.96
2019-05-13T00:36:15.354Z,102483.96
2019-05-13T00:38:44.027Z,102485.39
2019-05-13T00:41:14.047Z,102491.52
2019-05-13T00:43:40.877Z,102486.23
2019-05-13T00:46:08.010Z,102492.19
2019-05-13T00:48:35.048Z,102493.88
2019-05-13T00:51:03.816Z,102487.05
2019-05-13T00:53:31.449Z,102488.59
2019-05-13T00:55:58.450Z,102487.67
2019-05-13T00:58:25.482Z,102490.70
2019-05-13T01:00:54.617Z,102489.41
2019-05-13T01:03:21.440Z,102484.89
2019-05-13T01:05:48.504Z,102482.98
2019-05-13T01:08:15.622Z,102491.73
2019-05-13T01:10:45.125Z,102492.14
2019-05-13T01:13:13.667Z,102485.09
2019-05-13T01:15:40.808Z,102491.91
2019-05-13T01:18:07.844Z,102485.88
2019-05-13T01:20:35.796Z,102487.63
2019-05-13T01:23:03.680Z,102485.97
2019-05-13T01:25:33.473Z,102481.81
2019-05-13T01:28:00.167Z,102485.97
2019-05-13T01:30:27.524Z,102485.73
2019-05-13T01:32:54.799Z,102488.42
2019-05-13T01:35:23.657Z,102478.86
2019-05-13T01:37:53.880Z,102483.87
2019-05-13T01:40:23.795Z,102490.52
2019-05-13T01:42:50.420Z,102488.19
2019-05-13T01:45:17.786Z,102481.70
2019-05-13T01:47:44.766Z,102482.46
2019-05-13T01:50:14.330Z,102475.66
2019-05-13T01:52:41.304Z,102486.31
2019-05-13T01:55:09.083Z,102486.31
2019-05-13T01:57:36.087Z,102488.00
2019-05-13T02:00:04.952Z,102488.00
2019-05-13T02:02:33.688Z,102490.80
2019-05-13T02:05:00.946Z,102487.47
2019-05-13T02:07:29.758Z,102487.47
2019-05-13T02:09:57.617Z,102480.73
2019-05-13T02:12:25.030Z,102486.18
2019-05-13T02:14:53.405Z,102481.40
2019-05-13T02:17:23.292Z,102481.40
2019-05-13T02:19:50.074Z,102482.91
2019-05-13T02:22:17.518Z,102482.91
2019-05-13T02:24:44.842Z,102486.91
2019-05-13T02:27:14.061Z,102501.34
2019-05-13T02:29:41.013Z,102501.34
2019-05-13T02:32:08.892Z,102510.54
2019-05-13T02:34:35.887Z,102511.81
2019-05-13T02:37:03.522Z,102511.81
2019-05-13T02:39:32.825Z,102500.84
2019-05-13T02:42:03.651Z,102500.84
2019-05-13T02:44:29.396Z,102511.17
2019-05-13T02:46:57.151Z,102502.69
2019-05-13T02:49:24.327Z,102505.08
2019-05-13T02:51:54.691Z,102505.88
2019-05-13T02:54:22.894Z,102509.31
2019-05-13T02:56:52.495Z,102505.09
2019-05-13T02:59:18.877Z,102509.64
2019-05-13T03:01:46.196Z,102509.64
2019-05-13T03:04:13.479Z,102511.72
2019-05-13T03:06:43.468Z,102517.72
2019-05-13T03:09:12.628Z,102519.88
2019-05-13T03:11:41.571Z,102520.83
2019-05-13T03:14:08.406Z,102516.50
2019-05-13T03:16:57.571Z,102522.34
2019-05-13T03:19:24.712Z,102520.26
2019-05-13T03:21:52.662Z,102520.26
2019-05-13T03:24:22.895Z,102524.72
2019-05-13T03:26:49.321Z,102520.26
2019-05-13T03:29:16.411Z,102523.78
2019-05-13T03:31:46.653Z,102526.75
2019-05-13T03:34:15.837Z,102532.09
2019-05-13T03:36:45.807Z,102539.16
2019-05-13T03:39:16.084Z,102536.81
2019-05-13T03:41:42.470Z,102541.02
2019-05-13T03:44:13.632Z,102543.40
2019-05-13T03:46:42.551Z,102554.56
2019-05-13T03:49:13.685Z,102551.38
2019-05-13T03:51:42.894Z,102542.52
2019-05-13T03:54:09.237Z,102549.88
2019-05-13T03:56:36.283Z,102550.59
2019-05-13T03:59:03.278Z,102552.05
2019-05-13T04:01:32.716Z,102550.86
2019-05-13T04:04:03.279Z,102557.34
2019-05-13T04:06:31.955Z,102556.81
2019-05-13T04:09:17.221Z,102554.17
2019-05-13T04:11:27.511Z,102556.73
2019-05-13T04:13:55.005Z,102560.26
2019-05-13T04:16:23.722Z,102556.36
2019-05-13T04:18:53.669Z,102556.71
2019-05-13T04:21:22.783Z,102563.20
2019-05-13T04:23:53.031Z,102557.91
2019-05-13T04:26:23.193Z,102555.11
2019-05-13T04:28:52.289Z,102559.53
2019-05-13T04:31:18.283Z,102563.85
2019-05-13T04:33:46.112Z,102562.73
2019-05-13T04:36:13.957Z,102563.96
2019-05-13T04:38:44.211Z,102571.55
2019-05-13T04:41:11.971Z,102563.95
2019-05-13T04:43:42.954Z,102560.12
2019-05-13T04:46:09.353Z,102564.77
2019-05-13T04:48:39.384Z,102568.14
2019-05-13T04:51:06.568Z,102577.98
2019-05-13T04:53:33.789Z,102583.50
2019-05-13T04:56:03.081Z,102583.50
2019-05-13T04:58:32.211Z,102594.80
2019-05-13T05:01:58.926Z,102594.80
2019-05-13T05:04:35.237Z,102593.52
2019-05-13T05:07:32.795Z,102584.12
2019-05-13T05:10:34.710Z,102579.23
2019-05-13T05:13:28.531Z,102587.93
2019-05-13T05:16:44.399Z,102584.25
2019-05-13T05:19:35.399Z,102594.88
2019-05-13T05:22:22.158Z,102594.67
2019-05-13T05:25:04.779Z,102592.00
2019-05-13T05:27:58.481Z,102598.31
2019-05-13T05:31:02.350Z,102598.31
2019-05-13T05:34:17.791Z,102606.91
2019-05-13T05:37:27.223Z,102611.39
2019-05-13T05:39:57.357Z,102614.72
2019-05-13T05:42:26.543Z,102614.72
2019-05-13T05:44:54.790Z,102621.24
2019-05-13T05:47:24.973Z,102618.67
2019-05-13T05:49:54.663Z,102607.89
2019-05-13T05:52:25.174Z,102613.52
2019-05-13T05:54:52.397Z,102607.21
2019-05-13T05:57:22.542Z,102610.53
2019-05-13T05:59:51.689Z,102614.60
2019-05-13T06:02:19.093Z,102610.35
2019-05-13T06:04:47.002Z,102607.41
2019-05-13T06:07:15.643Z,102608.61
2019-05-13T06:09:43.003Z,102609.36
2019-05-13T06:12:12.123Z,102599.59
2019-05-13T06:14:42.123Z,102607.47
2019-05-13T06:17:11.375Z,102601.55
2019-05-13T06:19:38.205Z,102604.50
2019-05-13T06:22:05.209Z,102609.77
2019-05-13T06:24:32.347Z,102609.20
2019-05-13T06:27:01.519Z,102603.39
2019-05-13T06:29:31.386Z,102603.09
2019-05-13T06:32:15.247Z,102602.73
2019-05-13T06:34:28.092Z,102603.03
2019-05-13T06:36:55.531Z,102604.36
2019-05-13T06:39:22.724Z,102601.08
2019-05-13T06:41:51.770Z,102601.33
2019-05-13T06:44:21.311Z,102598.14
2019-05-13T06:46:47.907Z,102603.37
2019-05-13T06:49:15.908Z,102603.57
2019-05-13T06:51:43.084Z,102604.67
2019-05-13T06:54:11.283Z,102604.62
2019-05-13T06:56:38.824Z,102608.30
2019-05-13T06:59:05.834Z,102607.25
2019-05-13T07:01:32.956Z,102611.83
2019-05-13T07:04:02.317Z,102610.16
2019-05-13T07:06:32.094Z,102613.88
2019-05-13T07:08:58.543Z,102607.34
2019-05-13T07:11:25.604Z,102607.03
2019-05-13T07:13:53.209Z,102616.38
2019-05-13T07:16:22.370Z,102609.99
2019-05-13T07:18:49.156Z,102607.88
2019-05-13T07:21:16.172Z,102609.55
2019-05-13T07:23:43.616Z,102605.39
2019-05-13T07:26:12.303Z,102610.56
2019-05-13T07:28:42.639Z,102607.90
2019-05-13T07:31:11.399Z,102607.95
2019-05-13T07:33:38.474Z,102609.24
2019-05-13T07:36:05.741Z,102609.66
2019-05-13T07:38:32.767Z,102610.95
2019-05-13T07:41:02.869Z,102608.11
2019-05-13T07:43:32.065Z,102610.39
2019-05-13T07:46:01.895Z,102606.34
2019-05-13T07:48:31.601Z,102611.08
2019-05-13T07:51:00.629Z,102612.03
2019-05-13T07:53:27.826Z,102611.56
2019-05-13T07:55:55.381Z,102602.91
2019-05-13T07:58:22.966Z,102603.08
2019-05-13T08:00:51.975Z,102595.13
2019-05-13T08:03:21.415Z,102601.42
2019-05-13T08:05:48.273Z,102599.56
2019-05-13T08:08:15.273Z,102600.95
2019-05-13T08:10:42.320Z,102594.17
2019-05-13T08:13:11.803Z,102586.63
2019-05-13T08:15:38.523Z,102598.55
2019-05-13T08:18:06.122Z,102599.90
2019-05-13T08:20:33.127Z,102595.77
2019-05-13T08:23:02.682Z,102600.16
2019-05-13T08:25:31.454Z,102604.38
2019-05-13T08:27:58.675Z,102602.18
2019-05-13T08:30:25.816Z,102600.75
2019-05-13T08:32:52.889Z,102596.70
2019-05-13T08:35:22.428Z,102599.41
2019-05-13T08:37:51.999Z,102601.89
2019-05-13T08:40:20.320Z,102603.73
2019-05-13T08:42:48.568Z,102600.60
2019-05-13T08:45:15.768Z,102600.30
2019-05-13T08:47:43.300Z,102607.98
2019-05-13T08:50:12.026Z,102601.53
2019-05-13T08:52:42.030Z,102598.95
2019-05-13T08:55:12.699Z,102599.83
2019-05-13T08:57:38.729Z,102606.26
2019-05-13T09:00:06.111Z,102594.38
2019-05-13T09:02:33.518Z,102593.42
2019-05-13T09:05:02.326Z,102596.63
2019-05-13T09:07:32.074Z,102596.31
2019-05-13T09:09:58.856Z,102595.49
2019-05-13T09:12:32.252Z,102597.13
2019-05-13T09:14:55.108Z,102595.97
2019-05-13T09:17:22.751Z,102601.19
2019-05-13T09:19:51.978Z,102596.78
2019-05-13T09:22:21.346Z,102593.39
2019-05-13T09:24:48.414Z,102594.56
2019-05-13T09:27:15.973Z,102587.80
2019-05-13T09:29:43.641Z,102601.52
2019-05-13T09:32:12.262Z,102602.02
2019-05-13T09:34:41.967Z,102591.94
2019-05-13T09:37:08.940Z,102591.50
2019-05-13T09:39:36.035Z,102593.63
2019-05-13T09:42:03.375Z,102586.26
2019-05-13T09:44:32.713Z,102592.73
2019-05-13T09:47:02.476Z,102594.75
2019-05-13T09:49:32.501Z,102597.54
2019-05-13T09:52:01.449Z,102586.92
2019-05-13T09:54:27.950Z,102593.27
2019-05-13T09:56:56.383Z,102584.00
2019-05-13T09:59:25.946Z,102585.81
2019-05-13T10:01:53.765Z,102582.85
2019-05-13T10:04:22.286Z,102581.50
2019-05-13T10:06:50.933Z,102580.66
2019-05-13T10:09:18.112Z,102589.34
2019-05-13T10:11:45.128Z,102585.89
2019-05-13T10:14:12.202Z,102583.66
2019-05-13T10:16:42.104Z,102569.30
2019-05-13T10:19:08.741Z,102575.89
2019-05-13T10:21:36.010Z,102572.80
2019-05-13T10:24:03.366Z,102578.03
2019-05-13T10:26:32.007Z,102570.41
2019-05-13T10:28:59.775Z,102565.83
2019-05-13T10:31:26.886Z,102573.69
2019-05-13T10:33:53.910Z,102568.87
2019-05-13T10:36:22.276Z,102566.66
2019-05-13T10:38:52.207Z,102555.66
2019-05-13T10:41:21.611Z,102564.41
2019-05-13T10:43:48.550Z,102562.33
2019-05-13T10:46:15.533Z,102556.64
2019-05-13T10:48:43.054Z,102560.61
2019-05-13T10:51:12.891Z,102557.78
2019-05-13T10:53:39.111Z,102565.64
2019-05-13T10:56:06.196Z,102557.31
2019-05-13T10:58:33.182Z,102555.09
2019-05-13T11:01:02.862Z,102546.92
2019-05-13T11:03:33.119Z,102539.08
2019-05-13T11:06:00.470Z,102536.36
2019-05-13T11:08:27.560Z,102537.97
2019-05-13T11:10:55.374Z,102532.21
2019-05-13T11:13:23.412Z,102527.41
2019-05-13T11:15:57.385Z,102532.53
2019-05-13T11:18:23.570Z,102522.55
2019-05-13T11:20:48.935Z,102523.03
2019-05-13T11:23:15.934Z,102519.02
2019-05-13T11:25:42.935Z,102526.47
2019-05-13T11:28:11.613Z,102513.36
2019-05-13T11:30:39.260Z,102518.81
2019-05-13T11:33:10.098Z,102519.74
2019-05-13T11:35:35.339Z,102510.99
2019-05-13T11:38:04.537Z,102521.03
2019-05-13T11:40:31.982Z,102511.52
2019-05-13T11:43:01.713Z,102510.09
2019-05-13T11:45:31.387Z,102512.78
2019-05-13T11:47:57.766Z,102505.79
2019-05-13T11:50:25.433Z,102505.19
2019-05-13T11:52:52.766Z,102502.32
2019-05-13T11:55:22.952Z,102496.79
2019-05-13T11:57:49.413Z,102494.11
2019-05-13T12:00:32.504Z,102494.05
2019-05-13T12:03:03.583Z,102491.97
2019-05-13T12:05:29.306Z,102497.67
2019-05-13T12:07:56.433Z,102491.39
2019-05-13T12:10:24.305Z,102480.41
2019-05-13T12:12:51.317Z,102478.31
2019-05-13T12:15:28.796Z,102472.16
2019-05-13T12:17:47.668Z,102473.83
2019-05-13T12:20:14.981Z,102476.16
2019-05-13T12:22:43.365Z,102464.52
2019-05-13T12:25:13.828Z,102463.91
2019-05-13T12:27:41.938Z,102454.20
2019-05-13T12:30:09.177Z,102460.75
2019-05-13T12:32:36.166Z,102461.47
2019-05-13T12:35:04.131Z,102456.28
2019-05-13T12:37:33.503Z,102452.10
2019-05-13T12:40:02.911Z,102454.24
2019-05-13T12:42:29.057Z,102454.17
2019-05-13T12:45:08.244Z,102446.36
2019-05-13T12:47:25.101Z,102455.88
2019-05-13T12:49:52.553Z,102443.64
2019-05-13T12:52:22.175Z,102450.80
2019-05-13T12:54:48.917Z,102439.52
2019-05-13T12:57:17.285Z,102441.01
2019-05-13T12:59:46.375Z,102443.36
2019-05-13T13:02:13.606Z,102440.34
2019-05-13T13:05:06.913Z,102446.20
2019-05-13T13:07:13.401Z,102442.06
2019-05-13T13:09:39.691Z,102434.90
2019-05-13T13:12:08.685Z,102424.87
2019-05-13T13:14:39.435Z,102422.55
2019-05-13T13:17:05.741Z,102421.09
2019-05-13T13:19:34.170Z,102424.07
2019-05-13T13:22:07.859Z,102420.84
2019-05-13T13:24:35.229Z,102409.67
2019-05-13T13:27:03.120Z,102414.64
2019-05-13T13:29:33.982Z,102405.36
2019-05-13T13:32:02.894Z,102403.05
2019-05-13T13:34:33.625Z,102399.41
2019-05-13T13:37:04.689Z,102400.72
2019-05-13T13:39:29.861Z,102409.09
2019-05-13T13:42:04.883Z,102402.31
2019-05-13T13:44:34.751Z,102400.13
2019-05-13T13:46:58.886Z,102399.00
2019-05-13T13:49:25.941Z,102395.58
2019-05-13T13:51:53.574Z,102397.94
2019-05-13T13:54:22.388Z,102401.95
2019-05-13T13:56:54.505Z,102390.44
2019-05-13T13:59:18.658Z,102386.61
2019-05-13T14:01:45.672Z,102390.73
2019-05-13T14:04:16.483Z,102394.86
2019-05-13T14:09:12.067Z,102379.20
2019-05-13T14:11:42.006Z,102370.25
2019-05-13T14:14:09.208Z,102380.07
2019-05-13T14:16:36.204Z,102379.70
2019-05-13T14:19:03.517Z,102379.81
2019-05-13T14:21:32.443Z,102377.67
2019-05-13T14:24:02.428Z,102377.69
2019-05-13T14:26:28.708Z,102369.88
2019-05-13T14:28:55.863Z,102368.61
2019-05-13T14:31:22.870Z,102360.34
2019-05-13T14:33:52.061Z,102350.38
2019-05-13T14:36:22.691Z,102356.98
2019-05-13T14:38:52.399Z,102336.47
2019-05-13T14:41:18.139Z,102345.65
2019-05-13T14:43:45.256Z,102354.80
2019-05-13T14:46:12.740Z,102333.89
2019-05-13T14:48:39.966Z,102337.89
2019-05-13T14:51:07.745Z,102339.44
2019-05-13T14:53:34.781Z,102341.08
2019-05-13T14:56:02.914Z,102337.33
2019-05-13T14:58:32.455Z,102342.52
2019-05-13T15:01:14.323Z,102340.98
2019-05-13T15:03:28.837Z,102331.67
2019-05-13T15:05:56.001Z,102341.52
2019-05-13T15:08:26.136Z,102336.44
2019-05-13T15:10:53.688Z,102322.66
2019-05-13T15:13:22.520Z,102330.53
2019-05-13T15:15:51.716Z,102328.77
2019-05-13T15:18:18.565Z,102328.94
2019-05-13T15:20:46.247Z,102326.27
2019-05-13T15:23:13.589Z,102330.57
2019-05-13T15:25:41.995Z,102325.47
2019-05-13T15:28:11.934Z,102324.01
2019-05-13T15:30:38.879Z,102321.47
2019-05-13T15:33:05.922Z,102310.20
2019-05-13T15:35:33.239Z,102317.03
2019-05-13T15:38:01.325Z,102311.44
2019-05-13T15:40:31.225Z,102311.02
2019-05-13T15:43:17.127Z,102313.16
2019-05-13T15:45:31.889Z,102313.08
2019-05-13T15:47:59.214Z,102308.72
2019-05-13T15:50:26.319Z,102301.38
2019-05-13T15:52:53.294Z,102300.53
2019-05-13T15:55:21.997Z,102304.08
2019-05-13T15:57:51.794Z,102300.66
2019-05-13T16:00:21.920Z,102299.28
2019-05-13T16:02:49.272Z,102302.41
2019-05-13T16:05:16.682Z,102292.84
2019-05-13T16:07:43.770Z,102289.83
2019-05-13T16:10:11.472Z,102294.23
2019-05-13T16:12:38.748Z,102294.27
2019-05-13T16:15:06.677Z,102288.57
2019-05-13T16:17:41.171Z,102290.25
2019-05-13T16:20:03.854Z,102287.59
2019-05-13T16:22:31.617Z,102278.94
2019-05-13T16:25:00.895Z,102286.78
2019-05-13T16:27:27.896Z,102289.40
2019-05-13T16:29:54.938Z,102287.70
2019-05-13T16:32:22.682Z,102284.69
2019-05-13T16:35:02.778Z,102277.72
2019-05-13T16:37:31.364Z,102282.91
2019-05-13T16:39:58.582Z,102290.63
2019-05-13T16:42:25.859Z,102282.03
2019-05-13T16:44:53.399Z,102283.34
2019-05-13T16:47:21.329Z,102283.78
2019-05-13T16:49:49.322Z,102276.80
2019-05-13T16:52:16.494Z,102277.24
2019-05-13T16:54:43.554Z,102283.73
2019-05-13T16:57:11.694Z,102279.30
2019-05-13T16:59:41.131Z,102277.55
2019-05-13T17:02:08.607Z,102274.13
2019-05-13T17:04:35.858Z,102273.75
2019-05-13T17:07:03.005Z,102277.67
2019-05-13T17:09:32.091Z,102272.91
2019-05-13T17:12:01.278Z,102273.33
2019-05-13T17:14:34.288Z,102274.65
2019-05-13T17:17:01.441Z,102266.80
2019-05-13T17:19:28.498Z,102268.11
2019-05-13T17:21:56.066Z,102263.30
2019-05-13T17:24:23.535Z,102266.81
2019-05-13T17:26:52.281Z,102265.92
2019-05-13T17:29:22.089Z,102272.89
2019-05-13T17:31:51.506Z,102271.16
2019-05-13T17:34:21.062Z,102268.98
2019-05-13T17:36:48.383Z,102263.30
2019-05-13T17:39:15.536Z,102259.41
2019-05-13T17:41:42.687Z,102266.80
2019-05-13T17:44:11.628Z,102265.08
2019-05-13T17:46:41.615Z,102266.35
2019-05-13T17:49:08.330Z,102258.09
2019-05-13T17:51:35.383Z,102264.19
2019-05-13T17:54:03.156Z,102272.41
2019-05-13T17:56:32.262Z,102265.45
2019-05-13T17:58:59.376Z,102273.28
2019-05-13T18:01:26.363Z,102268.03
2019-05-13T18:03:53.804Z,102267.92
2019-05-13T18:06:20.851Z,102266.63
2019-05-13T18:08:48.070Z,102269.63
2019-05-13T18:11:15.255Z,102262.65
2019-05-13T18:13:43.733Z,102251.73
2019-05-13T18:16:12.577Z,102260.37
2019-05-13T18:18:46.365Z,102262.06
2019-05-13T18:21:09.077Z,102255.47
2019-05-13T18:23:36.429Z,102252.93
2019-05-13T18:26:03.482Z,102259.47
2019-05-13T18:28:31.579Z,102260.69
2019-05-13T18:31:01.517Z,102267.14
2019-05-13T18:33:28.527Z,102265.48
2019-05-13T18:35:55.621Z,102263.95
2019-05-13T18:38:22.680Z,102263.13
2019-05-13T18:40:52.393Z,102265.23
2019-05-13T18:43:21.369Z,102272.55
2019-05-13T18:45:48.321Z,102270.72
2019-05-13T18:48:15.519Z,102266.68
2019-05-13T18:50:42.568Z,102274.45
2019-05-13T18:53:10.235Z,102276.20
2019-05-13T18:55:38.373Z,102279.51
2019-05-13T18:58:05.458Z,102279.48
2019-05-13T19:00:32.478Z,102279.27
2019-05-13T19:03:01.305Z,102285.53
2019-05-13T19:05:28.593Z,102286.28
2019-05-13T19:08:06.440Z,102286.94
2019-05-13T19:10:33.907Z,102287.30
2019-05-13T19:13:01.785Z,102289.47
2019-05-13T19:15:29.017Z,102292.50
2019-05-13T19:17:57.920Z,102288.59
2019-05-13T19:20:26.393Z,102288.67
2019-05-13T19:22:53.417Z,102291.73
2019-05-13T19:25:20.434Z,102287.68
2019-05-13T19:27:51.700Z,102288.22
2019-05-13T19:30:21.149Z,102297.44
2019-05-13T19:32:48.449Z,102297.94
2019-05-13T19:35:15.441Z,102291.88
2019-05-13T19:37:43.014Z,102291.45
2019-05-13T19:40:12.950Z,102294.08
2019-05-13T19:42:41.826Z,102295.30
2019-05-13T19:45:09.578Z,102291.27
2019-05-13T19:47:36.590Z,102294.28
2019-05-13T19:50:03.911Z,102298.84
2019-05-13T19:52:33.047Z,102298.26
2019-05-13T19:55:01.788Z,102295.66
2019-05-13T19:57:31.628Z,102298.88
2019-05-13T19:59:58.338Z,102304.53
2019-05-13T20:02:25.909Z,102305.81
2019-05-13T20:04:53.026Z,102307.86
2019-05-13T20:07:22.394Z,102308.55
2019-05-13T20:09:51.634Z,102311.16
2019-05-13T20:12:21.090Z,102305.28
2019-05-13T20:14:47.725Z,102315.17
2019-05-13T20:17:16.225Z,102315.04
2019-05-13T20:19:50.259Z,102311.31
2019-05-13T20:22:12.578Z,102314.87
2019-05-13T20:24:41.836Z,102316.25
2019-05-13T20:27:08.908Z,102321.33
2019-05-13T20:29:36.333Z,102320.81
2019-05-13T20:32:03.399Z,102319.30
2019-05-13T20:34:31.808Z,102325.21
2019-05-13T20:36:59.178Z,102328.53
2019-05-13T20:39:26.184Z,102332.25
2019-05-13T20:41:55.823Z,102327.51
2019-05-13T20:44:22.718Z,102329.34
2019-05-13T20:53:25.389Z,102334.93
2019-05-13T20:55:52.379Z,102345.62
2019-05-13T20:58:21.337Z,102339.82
2019-05-13T21:00:48.348Z,102342.66
2019-05-13T21:03:15.905Z,102342.91
2019-05-13T21:05:42.892Z,102342.66
2019-05-13T21:08:10.182Z,102347.51
2019-05-13T21:10:37.542Z,102346.95
2019-05-13T21:13:05.854Z,102350.76
2019-05-13T21:15:32.890Z,102346.62
2019-05-13T21:18:02.103Z,102350.67
2019-05-13T21:20:31.943Z,102352.33
2019-05-13T21:22:59.360Z,102347.84
2019-05-13T21:25:26.385Z,102353.00
2019-05-13T21:27:53.375Z,102352.69
2019-05-13T21:30:22.240Z,102350.23
2019-05-13T21:32:51.757Z,102351.69
2019-05-13T21:35:21.072Z,102354.64
2019-05-13T21:37:48.085Z,102349.84
2019-05-13T21:40:17.302Z,102349.47
2019-05-13T21:42:44.846Z,102350.76
2019-05-13T21:45:12.396Z,102356.44
2019-05-13T21:47:39.402Z,102355.88
2019-05-13T21:50:07.319Z,102351.17
2019-05-13T21:52:34.334Z,102353.23
2019-05-13T21:55:01.980Z,102355.48
2019-05-13T21:57:32.914Z,102350.42
2019-05-13T21:59:58.654Z,102354.70
2019-05-13T22:02:25.646Z,102355.76
2019-05-13T22:04:52.678Z,102349.35
2019-05-13T22:07:22.094Z,102361.19
2019-05-13T22:09:51.219Z,102353.91
2019-05-13T22:12:17.926Z,102354.53
2019-05-13T22:14:44.970Z,102347.08
2019-05-13T22:17:12.500Z,102351.78
2019-05-13T22:19:41.939Z,102344.25
2019-05-13T22:22:11.635Z,102338.94
2019-05-13T22:24:38.623Z,102338.20
2019-05-13T22:27:05.614Z,102330.25
2019-05-13T22:29:33.634Z,102327.78
2019-05-13T22:32:02.000Z,102325.39
2019-05-13T22:34:31.711Z,102318.70
2019-05-13T22:36:58.241Z,102318.22
2019-05-13T22:39:25.679Z,102313.44
2019-05-13T22:41:52.681Z,102311.73
2019-05-13T22:44:21.773Z,102309.83
2019-05-13T22:46:48.871Z,102312.09
2019-05-13T22:49:16.540Z,102316.81
2019-05-13T22:51:43.910Z,102320.09
2019-05-13T22:54:11.836Z,102323.39
2019-05-13T22:56:41.217Z,102321.28
2019-05-13T22:59:08.766Z,102321.03
2019-05-13T23:01:35.773Z,102318.09
2019-05-13T23:04:02.765Z,102317.64
2019-05-13T23:06:32.002Z,102324.63
2019-05-13T23:09:01.683Z,102321.97
2019-05-13T23:11:28.269Z,102328.24
2019-05-13T23:14:06.412Z,102327.73
2019-05-13T23:16:24.232Z,102326.38
2019-05-13T23:18:52.103Z,102316.23
2019-05-13T23:21:19.261Z,102313.33
2019-05-13T23:23:46.371Z,102315.84
2019-05-13T23:26:13.434Z,102310.39
2019-05-13T23:28:41.612Z,102303.00
2019-05-13T23:31:09.060Z,102308.92
2019-05-13T23:33:36.127Z,102314.08
2019-05-13T23:36:03.376Z,102310.97
2019-05-13T23:38:32.294Z,102315.39
2019-05-13T23:41:01.882Z,102312.26
2019-05-13T23:43:30.948Z,102309.62
2019-05-13T23:45:57.699Z,102302.65
2019-05-13T23:48:25.024Z,102305.36
2019-05-13T23:50:52.370Z,102300.21
2019-05-13T23:53:21.663Z,102307.33
2019-05-13T23:55:48.375Z,102297.48
2019-05-13T23:58:16.227Z,102307.31
